createdAt,value
2022-11-17T00:02:06.729Z,14.18
2022-11-17T00:04:54.439Z,13.68
2022-11-17T00:07:44.070Z,14.18
2022-11-17T00:10:31.220Z,13.60
2022-11-17T00:13:37.237Z,13.00
2022-11-17T00:16:24.584Z,13.48
2022-11-17T00:19:33.048Z,12.30
2022-11-17T00:22:20.637Z,13.35
2022-11-17T00:25:08.371Z,11.70
2022-11-17T00:27:57.620Z,12.38
2022-11-17T00:31:05.859Z,11.30
2022-11-17T00:34:07.251Z,9.40
2022-11-17T00:36:55.677Z,10.63
2022-11-17T00:39:42.884Z,9.05
2022-11-17T00:42:30.008Z,9.95
2022-11-17T00:45:17.303Z,8.65
2022-11-17T00:48:04.510Z,8.68
2022-11-17T00:50:51.703Z,8.90
2022-11-17T00:53:39.049Z,9.93
2022-11-17T00:56:26.991Z,10.38
2022-11-17T00:59:17.003Z,9.18
2022-11-17T01:02:04.952Z,8.88
2022-11-17T01:04:54.181Z,9.00
2022-11-17T01:07:41.268Z,9.05
2022-11-17T01:10:30.765Z,8.45
2022-11-17T01:13:18.154Z,8.80
2022-11-17T01:16:16.246Z,9.85
2022-11-17T01:19:04.131Z,7.78
2022-11-17T01:21:51.397Z,8.07
2022-11-17T01:24:38.749Z,9.43
2022-11-17T01:27:28.089Z,7.45
2022-11-17T01:30:18.592Z,7.63
2022-11-17T01:33:05.728Z,7.80
2022-11-17T01:35:52.851Z,8.63
2022-11-17T01:38:40.225Z,7.30
2022-11-17T01:41:28.266Z,6.95
2022-11-17T01:44:55.232Z,7.28
2022-11-17T01:47:48.424Z,6.22
2022-11-17T01:50:39.208Z,6.05
2022-11-17T01:53:31.020Z,5.30
2022-11-17T01:56:27.820Z,4.03
2022-11-17T01:59:25.217Z,4.97
2022-11-17T02:02:12.385Z,8.38
2022-11-17T02:05:17.527Z,7.63
2022-11-17T02:08:08.617Z,6.72
2022-11-17T02:10:55.975Z,6.18
2022-11-17T02:13:43.335Z,6.35
2022-11-17T02:16:30.955Z,5.90
2022-11-17T02:19:23.561Z,7.93
2022-11-17T02:22:39.257Z,7.30
2022-11-17T02:25:47.600Z,6.63
2022-11-17T02:29:06.883Z,7.38
2022-11-17T02:32:19.257Z,6.90
2022-11-17T02:35:35.650Z,7.65
2022-11-17T02:38:30.974Z,7.22
2022-11-17T02:41:32.298Z,7.15
2022-11-17T02:44:37.226Z,7.60
2022-11-17T02:47:28.179Z,6.03
2022-11-17T02:50:16.838Z,7.13
2022-11-17T02:53:04.852Z,6.97
2022-11-17T02:55:56.074Z,6.63
2022-11-17T02:58:46.327Z,4.82
2022-11-17T03:01:42.038Z,4.10
2022-11-17T03:05:09.367Z,4.13
2022-11-17T03:08:08.200Z,3.53
2022-11-17T03:10:58.378Z,3.88
2022-11-17T03:13:56.410Z,3.75
2022-11-17T03:17:01.936Z,3.75
2022-11-17T03:20:12.389Z,3.72
2022-11-17T03:23:18.570Z,3.72
2022-11-17T03:26:10.786Z,4.18
2022-11-17T03:28:58.762Z,4.15
2022-11-17T03:31:48.532Z,4.28
2022-11-17T03:34:56.388Z,3.75
2022-11-17T03:37:55.169Z,4.55
2022-11-17T03:40:46.673Z,4.60
2022-11-17T03:43:34.287Z,4.60
2022-11-17T03:46:26.067Z,3.85
2022-11-17T03:49:24.652Z,4.05
2022-11-17T03:52:11.944Z,4.13
2022-11-17T03:55:02.411Z,3.78
2022-11-17T03:58:05.683Z,3.60
2022-11-17T04:00:54.585Z,4.45
2022-11-17T04:03:41.738Z,3.92
2022-11-17T04:06:28.889Z,4.30
2022-11-17T04:09:18.752Z,4.50
2022-11-17T04:12:28.591Z,4.28
2022-11-17T04:15:34.985Z,4.63
2022-11-17T04:18:23.795Z,5.75
2022-11-17T04:21:10.903Z,4.82
2022-11-17T04:24:02.629Z,5.07
2022-11-17T04:27:08.469Z,5.80
2022-11-17T04:29:55.538Z,6.13
2022-11-17T04:32:42.636Z,5.43
2022-11-17T04:35:30.644Z,5.78
2022-11-17T04:38:22.926Z,6.15
2022-11-17T04:41:30.021Z,6.20
2022-11-17T04:44:19.402Z,6.10
2022-11-17T04:47:07.019Z,7.70
2022-11-17T04:49:56.321Z,9.32
2022-11-17T04:52:43.424Z,7.85
2022-11-17T04:55:34.943Z,8.52
2022-11-17T04:58:22.277Z,9.40
2022-11-17T05:01:18.780Z,8.32
2022-11-17T05:04:14.089Z,7.82
2022-11-17T05:07:01.255Z,8.55
2022-11-17T05:09:48.425Z,9.10
2022-11-17T05:12:53.982Z,7.65
2022-11-17T05:16:04.270Z,8.20
2022-11-17T05:18:51.346Z,8.82
2022-11-17T05:21:41.168Z,9.48
2022-11-17T05:24:31.390Z,10.70
2022-11-17T05:27:20.736Z,9.30
2022-11-17T05:30:08.862Z,8.95
2022-11-17T05:32:56.011Z,7.40
2022-11-17T05:35:43.137Z,5.88
2022-11-17T05:38:30.234Z,4.05
2022-11-17T05:41:21.196Z,3.67
2022-11-17T05:44:08.330Z,2.70
2022-11-17T05:46:55.461Z,2.70
2022-11-17T05:49:42.638Z,2.40
2022-11-17T05:52:29.721Z,2.58
2022-11-17T05:55:16.862Z,2.13
2022-11-17T05:58:12.105Z,2.08
2022-11-17T06:01:00.348Z,2.10
2022-11-17T06:03:52.911Z,2.25
2022-11-17T06:06:40.049Z,1.98
2022-11-17T06:09:29.671Z,2.40
2022-11-17T06:12:16.887Z,1.63
2022-11-17T06:15:04.956Z,1.80
2022-11-17T06:17:56.951Z,1.52
2022-11-17T06:20:51.908Z,2.17
2022-11-17T06:23:39.235Z,1.63
2022-11-17T06:26:26.628Z,1.40
2022-11-17T06:29:16.022Z,1.88
2022-11-17T06:32:03.248Z,1.30
2022-11-17T06:34:55.594Z,1.67
2022-11-17T06:37:46.049Z,1.88
2022-11-17T06:40:33.160Z,1.58
2022-11-17T06:43:20.276Z,1.60
2022-11-17T06:46:09.741Z,1.75
2022-11-17T06:48:59.174Z,1.70
2022-11-17T06:51:46.267Z,3.28
2022-11-17T06:54:33.470Z,1.30
2022-11-17T06:57:21.136Z,1.90
2022-11-17T07:00:09.433Z,1.70
2022-11-17T07:03:04.790Z,1.65
2022-11-17T07:05:52.434Z,1.75
2022-11-17T07:08:40.024Z,1.48
2022-11-17T07:11:27.353Z,1.38
2022-11-17T07:14:14.566Z,1.48
2022-11-17T07:17:03.820Z,1.55
2022-11-17T07:19:50.960Z,1.73
2022-11-17T07:22:38.768Z,1.30
2022-11-17T07:25:28.382Z,1.50
2022-11-17T07:28:15.719Z,1.60
2022-11-17T07:31:05.479Z,1.60
2022-11-17T07:33:54.421Z,1.63
2022-11-17T07:36:41.701Z,1.30
2022-11-17T07:39:29.356Z,1.35
2022-11-17T07:42:16.588Z,1.45
2022-11-17T07:45:05.971Z,1.58
2022-11-17T07:47:58.264Z,1.50
2022-11-17T07:50:45.458Z,1.30
2022-11-17T07:53:35.137Z,1.60
2022-11-17T07:56:22.479Z,1.10
2022-11-17T07:59:09.803Z,0.98
2022-11-17T08:01:57.360Z,1.42
2022-11-17T08:04:44.733Z,1.05
2022-11-17T08:07:32.070Z,0.93
2022-11-17T08:10:19.596Z,1.20
2022-11-17T08:13:07.915Z,1.83
2022-11-17T08:16:01.330Z,1.60
2022-11-17T08:18:52.649Z,1.00
2022-11-17T08:21:41.203Z,1.38
2022-11-17T08:24:28.465Z,0.90
2022-11-17T08:27:15.917Z,1.20
2022-11-17T08:30:08.875Z,1.00
2022-11-17T08:32:56.137Z,0.82
2022-11-17T08:35:45.477Z,1.00
2022-11-17T08:38:36.628Z,1.30
2022-11-17T08:41:26.959Z,1.05
2022-11-17T08:44:15.866Z,1.25
2022-11-17T08:47:03.408Z,0.95
2022-11-17T08:49:51.321Z,1.23
2022-11-17T08:52:38.795Z,1.00
2022-11-17T08:55:26.898Z,0.70
2022-11-17T08:58:14.627Z,1.00
2022-11-17T09:01:05.325Z,0.60
2022-11-17T09:03:53.587Z,0.73
2022-11-17T09:06:40.982Z,0.85
2022-11-17T09:09:31.681Z,1.23
2022-11-17T09:12:20.636Z,0.88
2022-11-17T09:15:09.878Z,0.73
2022-11-17T09:17:57.386Z,0.90
2022-11-17T09:20:45.976Z,0.80
2022-11-17T09:23:33.885Z,0.77
2022-11-17T09:26:21.635Z,0.88
2022-11-17T09:29:09.359Z,0.80
2022-11-17T09:31:56.920Z,0.90
2022-11-17T09:34:44.537Z,0.98
2022-11-17T09:37:34.744Z,0.80
2022-11-17T09:40:22.274Z,1.08
2022-11-17T09:43:38.162Z,0.90
2022-11-17T09:47:06.285Z,0.90
2022-11-17T09:50:02.334Z,0.75
2022-11-17T09:53:08.296Z,1.23
2022-11-17T09:56:03.029Z,1.00
2022-11-17T09:59:04.407Z,1.10
2022-11-17T10:01:51.624Z,1.23
2022-11-17T10:04:38.993Z,1.02
2022-11-17T10:07:26.771Z,0.85
2022-11-17T10:10:21.624Z,1.10
2022-11-17T10:13:28.048Z,1.45
2022-11-17T10:16:17.496Z,1.10
2022-11-17T10:19:16.744Z,1.33
2022-11-17T10:22:04.088Z,1.45
2022-11-17T10:24:58.745Z,1.38
2022-11-17T10:27:53.924Z,1.23
2022-11-17T10:31:11.521Z,1.20
2022-11-17T10:33:58.822Z,1.60
2022-11-17T10:36:48.610Z,1.50
2022-11-17T10:39:41.640Z,1.50
2022-11-17T10:42:29.000Z,1.40
2022-11-17T10:45:20.355Z,2.33
2022-11-17T10:48:25.329Z,1.35
2022-11-17T10:51:19.527Z,1.40
2022-11-17T10:54:15.427Z,1.52
2022-11-17T10:57:08.483Z,1.13
2022-11-17T10:59:58.057Z,1.50
2022-11-17T11:02:48.266Z,1.20
2022-11-17T11:05:35.463Z,1.33
2022-11-17T11:08:25.313Z,1.30
2022-11-17T11:11:44.518Z,2.35
2022-11-17T11:14:40.581Z,1.90
2022-11-17T11:17:29.821Z,1.52
2022-11-17T11:20:21.350Z,1.70
2022-11-17T11:23:36.244Z,1.83
2022-11-17T11:26:29.231Z,2.03
2022-11-17T11:29:26.344Z,1.60
2022-11-17T11:32:43.069Z,1.95
2022-11-17T11:35:36.404Z,2.45
2022-11-17T11:38:48.611Z,2.25
2022-11-17T11:41:56.518Z,1.83
2022-11-17T11:45:05.093Z,1.85
2022-11-17T11:48:04.543Z,2.40
2022-11-17T11:50:51.957Z,2.00
2022-11-17T11:53:50.859Z,2.28
2022-11-17T11:56:46.431Z,2.42
2022-11-17T11:59:48.334Z,2.35
2022-11-17T12:02:41.927Z,2.05
2022-11-17T12:05:35.519Z,1.98
2022-11-17T12:08:38.440Z,1.52
2022-11-17T12:14:32.902Z,1.92
2022-11-17T12:17:30.258Z,1.75
2022-11-17T12:20:46.981Z,1.92
2022-11-17T12:24:03.400Z,2.67
2022-11-17T12:26:51.157Z,1.85
2022-11-17T12:29:47.771Z,2.28
2022-11-17T12:32:46.663Z,2.45
2022-11-17T12:35:41.969Z,2.08
2022-11-17T12:38:29.313Z,2.83
2022-11-17T12:41:48.719Z,2.80
2022-11-17T12:44:44.263Z,2.25
2022-11-17T12:47:35.566Z,2.15
2022-11-17T12:50:34.797Z,2.00
2022-11-17T12:54:13.086Z,2.33
2022-11-17T12:57:30.022Z,2.45
2022-11-17T13:00:29.912Z,1.90
2022-11-17T13:03:30.730Z,2.10
2022-11-17T13:06:36.743Z,1.63
2022-11-17T13:09:27.271Z,2.00
2022-11-17T13:12:23.433Z,2.72
2022-11-17T13:15:24.428Z,2.25
2022-11-17T13:18:37.853Z,2.35
2022-11-17T13:21:25.030Z,1.92
2022-11-17T13:24:12.648Z,2.13
2022-11-17T13:27:02.119Z,2.55
2022-11-17T13:29:55.994Z,2.60
2022-11-17T13:32:43.798Z,2.00
2022-11-17T13:35:36.106Z,2.53
2022-11-17T13:38:24.596Z,2.22
2022-11-17T13:41:13.207Z,2.30
2022-11-17T13:44:01.285Z,2.78
2022-11-17T13:46:48.620Z,2.80
2022-11-17T13:49:37.595Z,2.88
2022-11-17T13:52:42.065Z,2.88
2022-11-17T13:55:35.401Z,2.92
2022-11-17T13:58:40.823Z,3.03
2022-11-17T14:01:29.627Z,3.35
2022-11-17T14:04:23.856Z,3.25
2022-11-17T14:07:16.981Z,3.97
2022-11-17T14:10:20.492Z,2.75
2022-11-17T14:13:24.342Z,3.70
2022-11-17T14:16:28.200Z,3.08
2022-11-17T14:19:16.115Z,2.65
2022-11-17T14:22:09.514Z,3.03
2022-11-17T14:24:58.044Z,2.65
2022-11-17T14:27:49.191Z,2.35
2022-11-17T14:30:41.109Z,3.30
2022-11-17T14:33:33.053Z,2.70
2022-11-17T14:36:20.441Z,3.22
2022-11-17T14:39:14.957Z,3.05
2022-11-17T14:42:02.428Z,3.05
2022-11-17T14:44:50.100Z,2.95
2022-11-17T14:47:40.001Z,2.85
2022-11-17T14:50:29.776Z,3.00
2022-11-17T14:53:17.265Z,3.55
2022-11-17T14:56:09.041Z,2.55
2022-11-17T14:58:59.545Z,1.90
2022-11-17T15:01:49.258Z,3.25
2022-11-17T15:04:50.188Z,2.55
2022-11-17T15:07:38.772Z,2.50
2022-11-17T15:10:31.290Z,2.75
2022-11-17T15:13:21.119Z,2.42
2022-11-17T15:16:10.636Z,3.70
2022-11-17T15:18:59.285Z,2.83
2022-11-17T15:21:46.797Z,2.22
2022-11-17T15:24:33.970Z,2.30
2022-11-17T15:27:21.382Z,2.55
2022-11-17T15:30:10.432Z,2.97
2022-11-17T15:33:01.239Z,2.10
2022-11-17T15:35:48.572Z,2.22
2022-11-17T15:38:37.200Z,2.08
2022-11-17T15:41:32.826Z,2.75
2022-11-17T15:44:20.203Z,2.25
2022-11-17T15:47:07.727Z,2.28
2022-11-17T15:49:58.668Z,2.22
2022-11-17T15:53:03.659Z,2.72
2022-11-17T15:55:52.008Z,2.55
2022-11-17T15:58:40.807Z,2.03
2022-11-17T16:01:33.233Z,2.05
2022-11-17T16:04:23.196Z,2.35
2022-11-17T16:07:10.858Z,4.70
2022-11-17T16:09:58.360Z,2.08
2022-11-17T16:12:45.964Z,2.75
2022-11-17T16:15:33.498Z,2.17
2022-11-17T16:18:21.464Z,2.45
2022-11-17T16:21:13.597Z,3.03
2022-11-17T16:24:02.556Z,2.60
2022-11-17T16:26:49.829Z,2.42
2022-11-17T16:29:37.062Z,3.00
2022-11-17T16:32:40.741Z,2.53
2022-11-17T16:35:28.420Z,2.28
2022-11-17T16:38:17.028Z,2.03
2022-11-17T16:41:04.222Z,2.20
2022-11-17T16:43:51.726Z,2.78
2022-11-17T16:46:41.741Z,3.00
2022-11-17T16:49:31.188Z,2.80
2022-11-17T16:52:18.777Z,3.28
2022-11-17T16:55:06.688Z,2.95
2022-11-17T16:57:55.322Z,3.35
2022-11-17T17:00:42.601Z,2.55
2022-11-17T17:03:33.028Z,2.17
2022-11-17T17:06:22.858Z,2.25
2022-11-17T17:09:11.980Z,4.50
2022-11-17T17:11:59.233Z,3.20
2022-11-17T17:14:47.706Z,2.47
2022-11-17T17:17:34.888Z,2.75
2022-11-17T17:20:24.725Z,2.10
2022-11-17T17:23:12.930Z,3.53
2022-11-17T17:26:03.046Z,2.28
2022-11-17T17:28:54.111Z,3.17
2022-11-17T17:31:42.561Z,2.80
2022-11-17T17:34:30.111Z,2.42
2022-11-17T17:37:18.487Z,2.13
2022-11-17T17:40:06.385Z,1.73
2022-11-17T17:42:53.817Z,2.10
2022-11-17T17:45:41.251Z,2.35
2022-11-17T17:48:32.751Z,2.50
2022-11-17T17:51:23.970Z,2.60
2022-11-17T17:54:24.434Z,2.10
2022-11-17T17:57:11.800Z,1.92
2022-11-17T18:00:00.008Z,1.90
2022-11-17T18:02:47.323Z,2.20
2022-11-17T18:05:34.961Z,3.03
2022-11-17T18:08:23.826Z,2.90
2022-11-17T18:11:13.565Z,2.75
2022-11-17T18:14:00.959Z,2.40
2022-11-17T18:16:48.798Z,2.22
2022-11-17T18:19:35.965Z,1.80
2022-11-17T18:22:24.256Z,2.45
2022-11-17T18:25:13.814Z,2.45
2022-11-17T18:28:05.454Z,1.83
2022-11-17T18:30:53.079Z,3.13
2022-11-17T18:33:41.257Z,2.90
2022-11-17T18:36:31.941Z,2.28
2022-11-17T18:39:19.690Z,2.10
2022-11-17T18:42:07.307Z,2.15
2022-11-17T18:44:57.385Z,2.80
2022-11-17T18:47:45.232Z,2.05
2022-11-17T18:50:52.103Z,2.25
2022-11-17T18:53:43.938Z,1.65
2022-11-17T18:56:36.311Z,2.30
2022-11-17T18:59:26.251Z,2.42
2022-11-17T19:02:13.663Z,1.80
2022-11-17T19:05:03.669Z,1.90
2022-11-17T19:07:51.141Z,1.73
2022-11-17T19:10:38.873Z,1.80
2022-11-17T19:13:26.511Z,1.20
2022-11-17T19:16:19.972Z,1.48
2022-11-17T19:19:07.401Z,2.05
2022-11-17T19:21:55.385Z,1.38
2022-11-17T19:24:44.171Z,0.90
2022-11-17T19:27:31.717Z,0.90
2022-11-17T19:30:22.462Z,1.30
2022-11-17T19:33:09.899Z,2.00
2022-11-17T19:35:57.551Z,1.00
2022-11-17T19:38:51.875Z,1.60
2022-11-17T19:41:42.657Z,1.40
2022-11-17T19:44:30.077Z,2.35
2022-11-17T19:47:18.220Z,3.05
2022-11-17T19:50:06.306Z,3.25
2022-11-17T19:52:54.106Z,4.32
2022-11-17T19:55:44.698Z,9.82
2022-11-17T19:58:32.070Z,2.33
2022-11-17T20:01:28.311Z,1.50
2022-11-17T20:04:16.069Z,2.80
2022-11-17T20:07:06.764Z,3.28
2022-11-17T20:09:54.548Z,2.53
2022-11-17T20:12:44.749Z,2.80
2022-11-17T20:15:36.782Z,2.10
2022-11-17T20:18:24.430Z,2.80
2022-11-17T20:21:14.096Z,2.28
2022-11-17T20:24:02.233Z,1.60
2022-11-17T20:26:52.112Z,1.92
2022-11-17T20:29:39.622Z,1.80
2022-11-17T20:32:32.725Z,1.77
2022-11-17T20:35:20.797Z,2.80
2022-11-17T20:38:13.012Z,6.80
2022-11-17T20:41:05.878Z,6.97
2022-11-17T20:43:58.348Z,4.10
2022-11-17T20:46:45.812Z,3.55
2022-11-17T20:49:33.213Z,2.58
2022-11-17T20:52:20.829Z,2.78
2022-11-17T20:55:11.336Z,3.80
2022-11-17T20:57:58.891Z,3.78
2022-11-17T21:00:46.638Z,2.47
2022-11-17T21:03:34.290Z,5.47
2022-11-17T21:06:23.452Z,5.70
2022-11-17T21:09:10.878Z,3.58
2022-11-17T21:11:59.092Z,3.90
2022-11-17T21:14:46.550Z,6.15
2022-11-17T21:17:52.883Z,5.65
2022-11-17T21:20:40.314Z,7.30
2022-11-17T21:23:28.582Z,9.10
2022-11-17T21:26:19.770Z,6.20
2022-11-17T21:29:07.389Z,3.83
2022-11-17T21:31:54.698Z,2.20
2022-11-17T21:34:47.022Z,2.10
2022-11-17T21:37:37.271Z,1.55
2022-11-17T21:40:24.768Z,1.50
2022-11-17T21:43:11.982Z,1.92
2022-11-17T21:46:06.958Z,1.20
2022-11-17T21:48:57.065Z,1.45
2022-11-17T21:51:45.596Z,1.40
2022-11-17T21:54:33.037Z,1.15
2022-11-17T21:57:22.772Z,1.30
2022-11-17T22:00:10.500Z,1.25
2022-11-17T22:02:57.711Z,1.25
2022-11-17T22:05:45.052Z,1.20
2022-11-17T22:08:33.995Z,1.33
2022-11-17T22:11:37.043Z,0.90
2022-11-17T22:14:26.655Z,1.08
2022-11-17T22:17:13.823Z,0.95
2022-11-17T22:20:01.107Z,1.20
2022-11-17T22:22:49.174Z,0.80
2022-11-17T22:25:45.256Z,0.70
2022-11-17T22:28:33.144Z,0.70
2022-11-17T22:31:21.185Z,0.70
2022-11-17T22:34:08.672Z,0.68
2022-11-17T22:36:55.897Z,0.98
2022-11-17T22:39:42.989Z,0.80
2022-11-17T22:42:30.365Z,0.95
2022-11-17T22:45:17.487Z,0.70
2022-11-17T22:48:08.312Z,0.70
2022-11-17T22:51:00.992Z,0.70
2022-11-17T22:56:36.160Z,1.00
2022-11-17T22:59:27.237Z,1.00
2022-11-17T23:02:14.394Z,1.15
2022-11-17T23:05:01.562Z,1.10
2022-11-17T23:07:48.889Z,1.75
2022-11-17T23:10:37.202Z,1.30
2022-11-17T23:13:24.321Z,1.20
2022-11-17T23:16:11.656Z,1.20
2022-11-17T23:18:59.116Z,1.05
2022-11-17T23:21:46.224Z,2.22
2022-11-17T23:24:36.088Z,2.20
2022-11-17T23:27:23.321Z,2.38
2022-11-17T23:30:11.085Z,2.45
2022-11-17T23:32:58.322Z,2.65
2022-11-17T23:35:45.504Z,2.63
2022-11-17T23:38:33.492Z,3.17
2022-11-17T23:41:21.647Z,2.95
2022-11-17T23:44:08.753Z,3.13
2022-11-17T23:46:56.043Z,2.67
2022-11-17T23:49:43.228Z,2.60
2022-11-17T23:52:30.655Z,2.05
2022-11-17T23:55:17.789Z,2.20
2022-11-17T23:58:04.970Z,2.28
